Time;durP1;ratioP1;P1;durP2;ratioP2;P2;SDS_P1;SDS_P2;PMS_P1;PMS_P2;Temp;Humidity;BMP_temperature;BMP_pressure;BME280_temperature;BME280_humidity;BME280_pressure;Samples;Min_cycle;Max_cycle;Signal;HPM_P1;HPM_P2
2024/01/06 00:01:25;;;;;;;11.40;6.10;;;;;;;-1.34;64.55;99254.73;107574;1254;72988;-41
2024/01/06 00:03:53;;;;;;;9.80;6.10;;;;;;;-1.34;64.58;99262.88;107522;1254;67929;-40
2024/01/06 00:06:21;;;;;;;10.20;6.00;;;;;;;-1.35;64.19;99275.75;107564;1253;72702;-41
2024/01/06 00:08:53;;;;;;;9.50;5.90;;;;;;;-1.40;63.92;99275.34;107582;1253;59599;-41
2024/01/06 00:11:22;;;;;;;9.90;5.70;;;;;;;-1.41;63.97;99278.48;107514;1254;60642;-41
2024/01/06 00:13:49;;;;;;;10.20;6.00;;;;;;;-1.42;64.07;99276.01;107582;1254;73818;-41
2024/01/06 00:16:18;;;;;;;9.20;5.80;;;;;;;-1.41;64.13;99277.59;107556;1254;67557;-41
2024/01/06 00:18:46;;;;;;;9.90;5.80;;;;;;;-1.39;64.14;99279.95;107488;1254;72501;-41
2024/01/06 00:21:14;;;;;;;8.30;5.20;;;;;;;-1.38;64.12;99293.08;107576;1256;60770;-40
2024/01/06 00:23:42;;;;;;;10.40;5.90;;;;;;;-1.38;63.83;99299.67;107568;1254;60463;-41
2024/01/06 00:26:09;;;;;;;9.00;5.50;;;;;;;-1.37;63.80;99295.20;106803;1254;1003516;-40
2024/01/06 00:28:38;;;;;;;10.70;6.10;;;;;;;-1.35;63.50;99299.00;107576;1254;65413;-40
2024/01/06 00:31:06;;;;;;;10.40;6.20;;;;;;;-1.34;63.82;99304.30;107546;1254;72476;-41
2024/01/06 00:33:34;;;;;;;10.50;6.10;;;;;;;-1.31;63.55;99310.30;107505;1254;60268;-41
2024/01/06 00:36:01;;;;;;;9.60;5.80;;;;;;;-1.33;63.24;99313.77;107456;1254;59333;-41
2024/01/06 00:38:29;;;;;;;9.90;6.30;;;;;;;-1.37;63.14;99313.66;107443;1254;72657;-41
2024/01/06 00:40:57;;;;;;;9.60;5.90;;;;;;;-1.39;63.51;99308.61;107474;1254;67591;-40
2024/01/06 00:43:24;;;;;;;10.20;5.90;;;;;;;-1.37;63.74;99313.33;107466;1253;71395;-40
2024/01/06 00:45:51;;;;;;;9.90;5.70;;;;;;;-1.37;63.64;99310.73;106679;1253;1004144;-39
2024/01/06 00:48:20;;;;;;;8.90;5.80;;;;;;;-1.34;63.66;99313.46;106685;1253;1002942;-39
2024/01/06 00:50:47;;;;;;;9.80;5.60;;;;;;;-1.32;63.69;99316.73;107426;1254;73764;-40
2024/01/06 00:53:15;;;;;;;8.90;5.60;;;;;;;-1.30;64.04;99313.03;107464;1259;67724;-39
2024/01/06 00:55:42;;;;;;;11.30;6.70;;;;;;;-1.29;63.93;99307.82;107463;1254;72768;-40
2024/01/06 00:58:10;;;;;;;8.30;5.90;;;;;;;-1.30;64.13;99298.52;107485;1254;60184;-40
2024/01/06 01:00:37;;;;;;;9.80;5.70;;;;;;;-1.29;64.16;99299.20;106708;1259;1002931;-40
2024/01/06 01:03:05;;;;;;;10.50;5.30;;;;;;;-1.18;63.98;99293.55;107373;1256;72578;-40
2024/01/06 01:05:34;;;;;;;8.80;5.60;;;;;;;-1.07;63.72;99275.21;107350;1253;67579;-41
2024/01/06 01:08:01;;;;;;;11.40;5.70;;;;;;;-1.03;63.50;99266.14;107325;1253;71411;-40
2024/01/06 01:10:29;;;;;;;7.90;5.30;;;;;;;-1.00;63.39;99258.42;107357;1253;60239;-40
2024/01/06 01:12:56;;;;;;;9.10;5.60;;;;;;;-0.99;63.35;99254.20;107378;1253;59598;-41
2024/01/06 01:15:24;;;;;;;10.40;5.80;;;;;;;-0.97;63.41;99247.73;107364;1253;73774;-42
2024/01/06 01:17:51;;;;;;;8.90;5.50;;;;;;;-0.95;63.55;99241.27;107353;1253;67582;-42
2024/01/06 01:20:19;;;;;;;11.70;6.50;;;;;;;-0.94;63.47;99236.05;107394;1259;72694;-39
2024/01/06 01:22:46;;;;;;;11.20;6.70;;;;;;;-0.93;63.50;99236.73;107451;1253;60438;-38
2024/01/06 01:25:14;;;;;;;9.50;5.90;;;;;;;-0.92;63.44;99244.60;107492;1254;60438;-39
2024/01/06 01:27:41;;;;;;;10.90;6.20;;;;;;;-0.92;63.27;99236.30;107473;1253;72612;-39
2024/01/06 01:30:09;;;;;;;11.00;6.30;;;;;;;-0.94;63.18;99239.61;107451;1253;66319;-40
2024/01/06 01:32:37;;;;;;;9.10;6.10;;;;;;;-0.94;63.31;99221.26;107479;1253;72694;-39
2024/01/06 01:35:06;;;;;;;10.40;6.60;;;;;;;-0.95;63.43;99230.70;107371;1254;60434;-39
2024/01/06 01:37:33;;;;;;;12.30;6.80;;;;;;;-0.97;63.18;99229.45;106686;1259;1015595;-40
2024/01/06 01:40:00;;;;;;;12.00;6.80;;;;;;;-1.00;63.32;99239.28;107422;1259;72980;-40
2024/01/06 01:42:28;;;;;;;12.10;7.30;;;;;;;-1.04;63.68;99234.33;107494;1253;67866;-39
2024/01/06 01:44:55;;;;;;;12.20;6.50;;;;;;;-1.06;63.89;99228.38;107445;1253;72248;-39
2024/01/06 01:47:23;;;;;;;12.40;6.70;;;;;;;-1.07;63.62;99239.16;107476;1253;60777;-40
2024/01/06 01:49:50;;;;;;;9.60;6.30;;;;;;;-1.06;63.82;99241.58;107478;1253;60559;-39
2024/01/06 01:52:18;;;;;;;12.00;7.20;;;;;;;-1.04;63.89;99236.71;107416;1254;73841;-40
2024/01/06 01:54:45;;;;;;;12.30;7.70;;;;;;;-1.02;63.96;99240.41;106717;1253;1002859;-39
2024/01/06 01:57:14;;;;;;;11.70;7.50;;;;;;;-1.01;64.09;99241.05;107473;1253;72592;-40
2024/01/06 01:59:41;;;;;;;12.10;7.40;;;;;;;-1.01;63.88;99235.58;107541;1255;59665;-40
2024/01/06 02:02:09;;;;;;;13.70;7.30;;;;;;;-1.05;64.14;99217.89;107463;1254;60453;-39
2024/01/06 02:04:36;;;;;;;14.80;7.70;;;;;;;-0.96;64.11;99221.86;106611;1253;1003479;-39
2024/01/06 02:07:04;;;;;;;12.40;7.30;;;;;;;-0.95;64.12;99228.88;107479;1253;66617;-39
2024/01/06 02:09:32;;;;;;;12.40;7.30;;;;;;;-0.95;63.87;99222.91;107491;1253;72914;-39
2024/01/06 02:11:59;;;;;;;12.90;7.50;;;;;;;-0.91;63.89;99221.06;107466;1253;61089;-41
2024/01/06 02:14:27;;;;;;;11.00;7.50;;;;;;;-0.92;63.81;99222.03;106738;1253;1002695;-40
2024/01/06 02:16:54;;;;;;;12.20;7.70;;;;;;;-0.94;63.50;99213.16;106736;1253;1003285;-40
2024/01/06 02:19:22;;;;;;;14.10;8.10;;;;;;;-0.99;63.55;99208.66;107471;1254;68017;-40
2024/01/06 02:21:53;;;;;;;13.00;8.10;;;;;;;-1.02;63.45;99207.91;107416;1253;72655;-40
2024/01/06 02:24:21;;;;;;;13.20;7.60;;;;;;;-1.05;63.68;99202.73;107386;1253;60358;-40
2024/01/06 02:26:49;;;;;;;15.00;8.00;;;;;;;-1.07;63.60;99201.98;107398;1253;60425;-41
2024/01/06 02:29:16;;;;;;;12.40;8.10;;;;;;;-1.08;63.74;99190.81;107471;1253;73885;-40
2024/01/06 02:31:44;;;;;;;12.00;6.60;;;;;;;-1.06;64.04;99193.92;107430;1253;67587;-40
2024/01/06 02:34:11;;;;;;;13.30;7.00;;;;;;;-0.96;64.08;99196.38;107427;1254;72716;-40
2024/01/06 02:36:39;;;;;;;10.20;7.20;;;;;;;-0.90;63.86;99195.60;107451;1254;60408;-40
2024/01/06 02:39:07;;;;;;;15.10;7.20;;;;;;;-0.90;63.73;99192.41;107411;1254;60397;-40
2024/01/06 02:41:34;;;;;;;11.70;6.90;;;;;;;-0.90;64.10;99181.17;107483;1253;73801;-40
2024/01/06 02:44:03;;;;;;;11.30;7.10;;;;;;;-0.87;63.99;99182.47;107466;1254;67905;-40
2024/01/06 02:46:31;;;;;;;11.70;7.40;;;;;;;-0.91;63.84;99184.00;107441;1254;71563;-40
2024/01/06 02:48:58;;;;;;;12.90;7.40;;;;;;;-0.92;63.89;99184.89;107358;1256;60300;-40
2024/01/06 02:51:26;;;;;;;12.50;7.00;;;;;;;-0.93;64.13;99190.34;107447;1253;60429;-40
2024/01/06 02:53:53;;;;;;;11.40;6.80;;;;;;;-0.94;64.16;99190.45;107456;1253;73873;-40
2024/01/06 02:56:22;;;;;;;11.50;6.90;;;;;;;-0.94;64.14;99189.44;107464;1259;67572;-40
2024/01/06 02:58:49;;;;;;;10.20;6.30;;;;;;;-0.94;64.41;99184.91;107426;1254;72954;-40
2024/01/06 03:01:17;;;;;;;11.30;6.20;;;;;;;-0.96;64.57;99176.20;106732;1254;1003676;-40
2024/01/06 03:03:45;;;;;;;9.70;6.40;;;;;;;-0.97;64.87;99178.67;107480;1258;59655;-40
2024/01/06 03:06:13;;;;;;;10.20;6.30;;;;;;;-0.97;64.89;99180.15;107504;1253;72607;-40
2024/01/06 03:08:40;;;;;;;9.50;6.10;;;;;;;-0.98;64.89;99174.48;107491;1254;67548;-40
2024/01/06 03:11:08;;;;;;;10.70;6.30;;;;;;;-1.00;64.89;99175.20;107426;1253;71852;-40
2024/01/06 03:13:35;;;;;;;9.40;5.50;;;;;;;-1.00;65.01;99178.02;106714;1254;1003554;-40
2024/01/06 03:16:05;;;;;;;9.90;5.70;;;;;;;-1.00;65.17;99169.67;106698;1253;1002933;-40
2024/01/06 03:18:32;;;;;;;8.00;5.70;;;;;;;-1.01;64.93;99156.44;107494;1253;72396;-40
2024/01/06 03:21:00;;;;;;;7.20;4.60;;;;;;;-0.88;64.94;99164.23;107458;1254;65324;-40
2024/01/06 03:23:28;;;;;;;7.70;5.20;;;;;;;-0.77;65.09;99160.13;107490;1253;72679;-40
2024/01/06 03:25:55;;;;;;;8.00;5.50;;;;;;;-0.72;65.09;99161.64;107464;1254;60272;-40
2024/01/06 03:28:23;;;;;;;9.30;5.60;;;;;;;-0.68;64.87;99171.22;107453;1253;60377;-40
2024/01/06 03:30:50;;;;;;;9.10;5.50;;;;;;;-0.63;64.96;99171.13;107474;1253;73845;-40
2024/01/06 03:33:18;;;;;;;8.70;5.90;;;;;;;-0.59;64.84;99174.16;107481;1253;66610;-41
2024/01/06 03:35:45;;;;;;;9.30;5.90;;;;;;;-0.58;64.67;99173.13;107455;1254;71421;-41
2024/01/06 03:38:13;;;;;;;7.70;5.70;;;;;;;-0.55;64.41;99170.10;107416;1253;60460;-41
2024/01/06 03:40:40;;;;;;;9.10;5.40;;;;;;;-0.53;64.63;99171.56;106642;1258;1003416;-41
2024/01/06 03:43:08;;;;;;;7.50;5.50;;;;;;;-0.52;64.64;99164.66;106692;1254;1002853;-41
2024/01/06 03:45:35;;;;;;;7.80;5.40;;;;;;;-0.51;64.70;99155.75;107335;1253;67540;-40
2024/01/06 03:48:03;;;;;;;7.40;5.40;;;;;;;-0.53;64.74;99165.96;107376;1254;71381;-41
2024/01/06 03:50:31;;;;;;;8.70;5.60;;;;;;;-0.61;64.60;99164.34;107454;1253;60404;-41
2024/01/06 03:52:59;;;;;;;8.40;5.80;;;;;;;-0.59;64.66;99177.48;107463;1253;59658;-41
2024/01/06 03:55:26;;;;;;;7.20;5.50;;;;;;;-0.62;64.60;99178.94;107437;1253;72748;-41
2024/01/06 03:57:54;;;;;;;8.50;5.60;;;;;;;-0.64;64.81;99172.38;107343;1253;68187;-41
2024/01/06 04:00:21;;;;;;;7.90;5.40;;;;;;;-0.65;65.12;99166.06;106641;1256;1002875;-40
2024/01/06 04:02:49;;;;;;;6.80;5.00;;;;;;;-0.66;64.98;99157.23;106722;1254;1002853;-40
2024/01/06 04:05:16;;;;;;;7.40;5.10;;;;;;;-0.65;65.22;99156.42;107467;1253;60295;-40
2024/01/06 04:07:46;;;;;;;7.80;5.50;;;;;;;-0.65;65.14;99148.33;107475;1253;72617;-40
2024/01/06 04:10:13;;;;;;;8.70;5.70;;;;;;;-0.65;65.32;99135.17;107372;1253;67785;-40
2024/01/06 04:12:41;;;;;;;7.90;4.60;;;;;;;-0.65;65.19;99135.29;107363;1254;72740;-40
2024/01/06 04:15:09;;;;;;;6.80;4.40;;;;;;;-0.62;65.27;99136.83;107323;1258;60290;-40
2024/01/06 04:17:36;;;;;;;7.40;4.80;;;;;;;-0.54;65.01;99134.41;107467;1253;60463;-40
2024/01/06 04:20:04;;;;;;;7.60;5.10;;;;;;;-0.51;65.15;99147.77;107495;1253;73755;-40
2024/01/06 04:22:32;;;;;;;7.60;4.90;;;;;;;-0.48;65.56;99153.00;107507;1253;67943;-40
2024/01/06 04:24:59;;;;;;;7.60;5.00;;;;;;;-0.47;65.16;99145.10;107398;1257;71489;-40
2024/01/06 04:27:27;;;;;;;7.40;5.00;;;;;;;-0.43;65.32;99140.81;107452;1254;60471;-41
2024/01/06 04:29:54;;;;;;;6.80;4.90;;;;;;;-0.43;65.30;99143.70;107488;1253;60195;-40
2024/01/06 04:32:22;;;;;;;8.00;5.40;;;;;;;-0.43;65.42;99148.11;107261;1254;73925;-40
2024/01/06 04:34:49;;;;;;;8.60;5.30;;;;;;;-0.44;65.53;99144.29;107491;1259;66295;-40
2024/01/06 04:37:17;;;;;;;7.30;5.50;;;;;;;-0.44;65.84;99143.76;106694;1256;1002825;-40
2024/01/06 04:39:44;;;;;;;8.70;5.50;;;;;;;-0.44;65.85;99131.72;107464;1254;60524;-40
2024/01/06 04:42:12;;;;;;;9.10;5.80;;;;;;;-0.45;65.81;99125.80;107374;1253;153228;-40
2024/01/06 04:47:30;;;;;;;7.60;5.20;;;;;;;-0.48;66.00;99123.72;104144;1291;601141;-40
2024/01/06 04:49:58;;;;;;;7.70;5.30;;;;;;;-0.46;66.16;99121.65;106640;1267;59646;-41
2024/01/06 04:52:25;;;;;;;7.70;5.30;;;;;;;-0.34;65.93;99118.85;106653;1266;60159;-41
2024/01/06 04:54:53;;;;;;;9.50;5.90;;;;;;;-0.30;66.17;99111.36;106656;1266;72029;-41
2024/01/06 04:57:20;;;;;;;7.80;5.50;;;;;;;-0.30;66.04;99113.77;106655;1266;65321;-41
2024/01/06 04:59:48;;;;;;;9.70;5.60;;;;;;;-0.30;66.12;99110.89;106650;1266;72846;-41
2024/01/06 05:02:16;;;;;;;9.30;6.20;;;;;;;-0.29;66.03;99116.58;106713;1264;124387;-41
2024/01/06 05:04:43;;;;;;;8.90;5.50;;;;;;;-0.32;66.03;99111.39;106790;1264;60052;-41
2024/01/06 05:07:11;;;;;;;9.10;5.80;;;;;;;-0.35;66.03;99114.23;106794;1264;71030;-40
2024/01/06 05:09:39;;;;;;;9.70;6.50;;;;;;;-0.39;66.14;99114.09;106796;1264;67699;-41
2024/01/06 05:12:07;;;;;;;8.60;6.70;;;;;;;-0.42;66.38;99116.67;106705;1264;71234;-41
2024/01/06 05:14:34;;;;;;;9.20;5.80;;;;;;;-0.44;66.58;99115.77;106816;1264;59532;-41
2024/01/06 05:17:02;;;;;;;10.30;6.70;;;;;;;-0.46;66.67;99115.89;106697;1264;59657;-41
2024/01/06 05:19:29;;;;;;;9.80;6.40;;;;;;;-0.46;66.74;99113.50;106800;1264;73071;-41
2024/01/06 05:21:57;;;;;;;14.30;6.80;;;;;;;-0.47;66.86;99117.83;106780;1264;66637;-41
2024/01/06 05:24:24;;;;;;;8.90;6.30;;;;;;;-0.49;66.81;99117.22;106720;1264;71813;-41
2024/01/06 05:26:52;;;;;;;8.90;6.10;;;;;;;-0.43;66.87;99114.63;106781;1264;59691;-41
2024/01/06 05:29:19;;;;;;;8.90;6.20;;;;;;;-0.35;66.90;99115.98;106788;1263;60390;-41
2024/01/06 05:31:48;;;;;;;9.80;6.80;;;;;;;-0.33;67.14;99116.11;106789;1264;73225;-41
2024/01/06 05:34:16;;;;;;;10.00;6.50;;;;;;;-0.32;67.24;99113.46;106795;1264;67534;-41
2024/01/06 05:36:44;;;;;;;8.80;6.00;;;;;;;-0.31;67.32;99111.65;106778;1264;72454;-41
2024/01/06 05:39:12;;;;;;;10.00;6.50;;;;;;;-0.29;67.38;99110.59;106777;1264;59499;-41
2024/01/06 05:41:40;;;;;;;8.90;6.10;;;;;;;-0.27;67.35;99097.23;107272;1256;59257;-41
2024/01/06 05:44:07;;;;;;;10.10;6.50;;;;;;;-0.24;67.37;99096.83;107256;1256;73226;-41
2024/01/06 05:46:35;;;;;;;9.40;6.70;;;;;;;-0.23;67.44;99090.82;107229;1256;66637;-41
2024/01/06 05:49:02;;;;;;;9.70;7.00;;;;;;;-0.24;67.47;99082.92;107237;1256;71345;-41
2024/01/06 05:51:30;;;;;;;8.60;6.40;;;;;;;-0.26;67.69;99073.77;107224;1260;59655;-41
2024/01/06 05:53:58;;;;;;;10.70;7.30;;;;;;;-0.29;67.67;99073.58;106473;1256;1016138;-41
2024/01/06 05:56:26;;;;;;;9.50;6.50;;;;;;;-0.30;67.85;99064.64;107153;1256;72919;-41
2024/01/06 05:58:54;;;;;;;9.70;6.50;;;;;;;-0.22;67.67;99057.55;107108;1257;68092;-41
2024/01/06 06:01:22;;;;;;;9.20;6.80;;;;;;;-0.23;67.82;99043.09;107021;1263;72508;-41
2024/01/06 06:03:50;;;;;;;10.70;7.10;;;;;;;-0.24;68.19;99039.61;107183;1256;59636;-41
2024/01/06 06:06:19;;;;;;;11.10;7.90;;;;;;;-0.25;68.21;99036.36;107179;1256;59992;-41
2024/01/06 06:08:48;;;;;;;12.00;7.30;;;;;;;-0.25;68.30;99038.19;107249;1262;73089;-41
2024/01/06 06:11:16;;;;;;;15.50;7.90;;;;;;;-0.28;68.21;99032.05;107175;1256;66638;-41
2024/01/06 06:13:44;;;;;;;12.80;8.10;;;;;;;-0.30;68.45;99029.86;107164;1258;71721;-40
2024/01/06 06:16:14;;;;;;;11.10;7.50;;;;;;;-0.37;68.66;99022.06;107133;1258;59651;-40
2024/01/06 06:18:42;;;;;;;11.00;8.30;;;;;;;-0.30;68.90;99029.70;106410;1256;1002884;-40
2024/01/06 06:21:09;;;;;;;12.00;7.60;;;;;;;-0.31;68.87;99032.64;107154;1256;73035;-40
2024/01/06 06:23:37;;;;;;;11.50;7.30;;;;;;;-0.23;68.70;99035.31;107152;1256;66365;-41
2024/01/06 06:26:06;;;;;;;11.10;7.50;;;;;;;-0.18;68.79;99045.34;107128;1258;71414;-41
2024/01/06 06:28:34;;;;;;;10.50;7.40;;;;;;;-0.19;68.68;99048.18;107197;1258;59743;-41
2024/01/06 06:31:02;;;;;;;11.60;7.50;;;;;;;-0.21;68.83;99044.18;107222;1256;60072;-41
2024/01/06 06:33:30;;;;;;;13.00;8.00;;;;;;;-0.20;68.98;99048.05;107186;1256;73470;-41
2024/01/06 06:35:58;;;;;;;12.30;8.10;;;;;;;-0.20;68.96;99051.44;107110;1262;67912;-40
2024/01/06 06:38:26;;;;;;;10.10;7.00;;;;;;;-0.18;69.02;99057.37;107098;1256;71344;-40
2024/01/06 06:40:53;;;;;;;11.20;7.90;;;;;;;-0.16;69.10;99065.50;107191;1256;59374;-40
2024/01/06 06:43:21;;;;;;;10.70;7.70;;;;;;;-0.15;68.97;99069.47;107187;1256;59526;-40
2024/01/06 06:45:48;;;;;;;11.30;7.80;;;;;;;-0.15;68.89;99076.08;107166;1256;72077;-40
2024/01/06 06:48:16;;;;;;;9.80;6.70;;;;;;;-0.08;68.87;99081.16;107137;1256;66369;-40
2024/01/06 06:50:44;;;;;;;9.30;7.00;;;;;;;0.02;68.39;99079.21;107132;1256;72672;-40
2024/01/06 06:53:12;;;;;;;12.30;6.70;;;;;;;0.05;68.58;99080.88;107176;1259;59628;-39
2024/01/06 06:55:40;;;;;;;12.70;7.80;;;;;;;0.06;68.39;99070.11;107076;1256;59555;-41
2024/01/06 06:58:08;;;;;;;12.60;7.60;;;;;;;0.08;68.34;99072.23;107086;1256;73129;-40
2024/01/06 07:00:36;;;;;;;10.70;7.50;;;;;;;0.09;68.26;99076.41;106342;1256;1003803;-40
2024/01/06 07:03:04;;;;;;;10.30;7.30;;;;;;;0.08;68.31;99073.70;107109;1258;71441;-40
2024/01/06 07:05:31;;;;;;;10.30;7.20;;;;;;;0.07;68.23;99071.80;107094;1259;59632;-40
2024/01/06 07:08:00;;;;;;;12.40;8.20;;;;;;;0.08;68.33;99074.77;107104;1256;59532;-40
2024/01/06 07:10:28;;;;;;;12.20;7.20;;;;;;;0.11;68.30;99069.59;107101;1256;73039;-40
2024/01/06 07:12:55;;;;;;;10.70;7.60;;;;;;;0.12;68.58;99068.82;107164;1256;67614;-40
2024/01/06 07:15:23;;;;;;;10.90;7.80;;;;;;;0.14;68.41;99070.45;107107;1256;72498;-40
2024/01/06 07:17:51;;;;;;;11.40;6.60;;;;;;;0.20;68.27;99064.50;107172;1256;59685;-40
2024/01/06 07:20:19;;;;;;;11.10;7.60;;;;;;;0.29;68.14;99064.27;107143;1256;59290;-40
2024/01/06 07:22:47;;;;;;;10.90;7.20;;;;;;;0.33;68.06;99063.01;107168;1256;73093;-40
2024/01/06 07:25:15;;;;;;;11.80;7.70;;;;;;;0.35;67.93;99062.84;107111;1256;67540;-41
2024/01/06 07:27:42;;;;;;;12.10;8.20;;;;;;;0.40;67.96;99060.44;107133;1256;72751;-40
2024/01/06 07:30:10;;;;;;;10.30;7.60;;;;;;;0.43;67.46;99061.66;107095;1256;59583;-40
2024/01/06 07:32:38;;;;;;;10.40;7.70;;;;;;;0.42;67.51;99057.20;107204;1256;59532;-40
2024/01/06 07:35:06;;;;;;;11.70;7.40;;;;;;;0.41;67.59;99056.15;107108;1256;71825;-40
2024/01/06 07:37:34;;;;;;;12.10;7.80;;;;;;;0.38;67.43;99055.16;107247;1257;66489;-40
2024/01/06 07:40:02;;;;;;;10.10;7.70;;;;;;;0.35;67.45;99047.91;107128;1262;72710;-40
2024/01/06 07:42:30;;;;;;;11.80;7.70;;;;;;;0.33;67.50;99044.20;107021;1256;59590;-40
2024/01/06 07:44:57;;;;;;;9.90;7.00;;;;;;;0.31;67.51;99037.02;106347;1262;1016367;-39
2024/01/06 07:47:25;;;;;;;9.50;7.10;;;;;;;0.35;67.44;99034.58;107060;1257;73289;-39
2024/01/06 07:49:54;;;;;;;11.40;7.10;;;;;;;0.43;67.37;99044.34;107150;1258;67605;-39
2024/01/06 07:52:21;;;;;;;10.70;7.30;;;;;;;0.46;67.38;99043.30;107146;1258;72431;-40
2024/01/06 07:54:49;;;;;;;10.20;7.40;;;;;;;0.50;67.56;99049.52;107095;1258;59433;-40
2024/01/06 07:57:17;;;;;;;9.70;6.60;;;;;;;0.54;67.51;99052.25;107089;1257;60075;-40
2024/01/06 07:59:45;;;;;;;11.80;7.60;;;;;;;0.58;67.50;99058.47;107093;1262;73049;-40
2024/01/06 08:02:12;;;;;;;11.40;7.50;;;;;;;0.59;67.28;99051.01;107072;1257;67624;-40
2024/01/06 08:04:40;;;;;;;10.90;7.70;;;;;;;0.60;67.41;99047.63;107096;1259;72781;-41
2024/01/06 08:07:08;;;;;;;10.90;7.90;;;;;;;0.59;67.08;99045.35;107082;1259;59636;-41
2024/01/06 08:09:35;;;;;;;11.00;7.20;;;;;;;0.56;67.12;99051.83;107053;1258;60009;-41
2024/01/06 08:12:08;;;;;;;9.20;7.40;;;;;;;0.55;67.37;99046.95;107217;1257;73025;-41
2024/01/06 08:14:35;;;;;;;13.30;7.70;;;;;;;0.52;67.52;99053.43;107147;1259;67413;-40
2024/01/06 08:17:03;;;;;;;10.00;7.30;;;;;;;0.49;67.60;99049.91;107095;1258;72775;-41
2024/01/06 08:19:32;;;;;;;12.80;7.10;;;;;;;0.55;67.39;99048.23;107150;1257;59677;-40
2024/01/06 08:22:00;;;;;;;11.40;7.40;;;;;;;0.63;67.51;99043.90;107133;1258;59605;-41
2024/01/06 08:24:27;;;;;;;10.80;7.50;;;;;;;0.65;67.80;99049.13;107143;1257;73062;-42
2024/01/06 08:26:55;;;;;;;11.00;7.80;;;;;;;0.66;67.82;99054.23;107057;1257;67562;-41
2024/01/06 08:29:22;;;;;;;11.30;7.60;;;;;;;0.68;67.87;99066.55;107064;1257;71411;-40
2024/01/06 08:31:52;;;;;;;11.10;8.00;;;;;;;0.71;67.79;99064.23;107046;1258;59507;-41
2024/01/06 08:34:20;;;;;;;15.30;8.40;;;;;;;0.75;68.00;99062.66;107151;1257;60223;-41
2024/01/06 08:36:48;;;;;;;12.30;8.40;;;;;;;0.80;67.88;99058.81;107143;1257;71857;-41
2024/01/06 08:39:16;;;;;;;13.20;8.50;;;;;;;0.84;67.90;99064.95;107117;1257;66315;-39
2024/01/06 08:41:46;;;;;;;13.80;8.30;;;;;;;0.86;67.96;99063.57;107153;1259;72705;-39
2024/01/06 08:44:14;;;;;;;12.20;8.50;;;;;;;0.90;68.06;99062.91;107139;1257;59801;-40
2024/01/06 08:46:41;;;;;;;14.30;8.10;;;;;;;0.89;67.86;99056.61;107149;1262;59207;-40
2024/01/06 08:49:09;;;;;;;13.10;8.90;;;;;;;0.89;67.95;99053.79;107137;1259;73076;-40
2024/01/06 08:51:37;;;;;;;9.80;7.20;;;;;;;0.98;67.77;99055.93;107091;1262;67081;-40
2024/01/06 08:54:05;;;;;;;10.60;7.80;;;;;;;1.09;67.65;99050.96;107108;1258;72689;-40
2024/01/06 08:56:33;;;;;;;12.50;7.80;;;;;;;1.17;67.87;99043.55;104127;1258;1003635;-40
2024/01/06 08:59:01;;;;;;;11.50;7.80;;;;;;;1.24;67.54;99035.14;107136;1257;60380;-41
2024/01/06 09:01:29;;;;;;;12.10;8.50;;;;;;;1.18;67.37;99018.23;107141;1257;73851;-40
2024/01/06 09:03:56;;;;;;;11.50;8.10;;;;;;;1.23;67.26;99025.52;107131;1258;67554;-40
2024/01/06 09:06:24;;;;;;;12.40;8.30;;;;;;;1.18;67.58;99017.90;107066;1259;72725;-41
2024/01/06 09:08:51;;;;;;;11.90;8.20;;;;;;;1.14;67.58;99018.28;107040;1259;60434;-41
2024/01/06 09:11:19;;;;;;;9.20;7.70;;;;;;;1.10;67.87;99024.14;106369;1257;1003631;-40
2024/01/06 09:13:46;;;;;;;11.50;8.10;;;;;;;1.09;68.03;99030.09;107063;1262;72459;-40
2024/01/06 09:16:14;;;;;;;11.50;7.90;;;;;;;1.10;68.29;99036.16;107099;1257;66457;-40
2024/01/06 09:18:41;;;;;;;10.30;7.10;;;;;;;1.11;68.10;99038.68;107046;1258;72487;-40
2024/01/06 09:21:09;;;;;;;10.10;7.60;;;;;;;1.16;68.27;99024.20;107039;1258;60214;-41
2024/01/06 09:23:36;;;;;;;11.20;8.50;;;;;;;1.24;68.13;99013.79;107077;1258;60444;-40
2024/01/06 09:26:04;;;;;;;11.80;8.30;;;;;;;1.27;68.29;98998.05;107069;1257;73033;-41
2024/01/06 09:28:31;;;;;;;15.40;8.30;;;;;;;1.21;68.20;98978.93;105609;1259;1003105;-41
2024/01/06 09:30:59;;;;;;;10.40;7.60;;;;;;;1.30;68.28;98983.79;106352;1257;1003643;-40
2024/01/06 09:33:27;;;;;;;12.00;8.00;;;;;;;1.28;68.04;98977.36;107102;1258;60374;-41
2024/01/06 09:35:54;;;;;;;11.50;8.30;;;;;;;1.26;68.08;98981.05;107114;1262;61003;-40
2024/01/06 09:38:22;;;;;;;13.20;8.60;;;;;;;1.22;68.19;98981.70;107113;1257;72596;-40
2024/01/06 09:40:49;;;;;;;12.30;8.30;;;;;;;1.19;68.14;98981.25;107120;1258;66709;-40
2024/01/06 09:43:17;;;;;;;12.50;8.30;;;;;;;1.16;68.14;98988.51;107001;1258;71197;-41
2024/01/06 09:46:03;;;;;;;10.60;7.60;;;;;;;1.14;68.48;98978.11;106997;1262;60468;-40
2024/01/06 09:48:31;;;;;;;10.80;7.00;;;;;;;1.20;68.18;98974.81;107016;1256;60374;-40
2024/01/06 09:51:01;;;;;;;10.50;7.50;;;;;;;1.25;67.82;98979.27;107466;1253;73821;-40
2024/01/06 09:53:36;;;;;;;10.50;7.70;;;;;;;1.23;67.96;98974.41;107383;1253;67879;-41
2024/01/06 09:56:05;;;;;;;12.90;8.50;;;;;;;1.22;68.15;98980.84;107390;1253;72669;-40
2024/01/06 09:58:34;;;;;;;11.70;8.40;;;;;;;1.20;67.90;98978.39;107500;1254;60473;-40
2024/01/06 10:01:02;;;;;;;10.80;7.90;;;;;;;1.18;68.18;98971.02;107299;1253;60593;-41
2024/01/06 10:03:29;;;;;;;14.50;7.90;;;;;;;1.14;68.22;98963.54;107261;1253;73857;-41
2024/01/06 10:06:00;;;;;;;11.00;8.00;;;;;;;1.17;68.15;98968.01;107468;1253;67590;-41
2024/01/06 10:08:28;;;;;;;11.70;8.50;;;;;;;1.16;68.41;98969.60;107449;1254;72642;-41
2024/01/06 10:10:55;;;;;;;12.20;8.50;;;;;;;1.15;68.51;98970.70;107170;1254;60498;-39
2024/01/06 10:13:24;;;;;;;12.40;8.10;;;;;;;1.17;68.53;98969.16;107471;1253;60225;-40
2024/01/06 10:15:51;;;;;;;9.30;7.20;;;;;;;1.22;68.60;98965.63;107514;1253;71632;-39
2024/01/06 10:18:19;;;;;;;11.30;7.50;;;;;;;1.32;68.27;98964.94;107440;1253;67643;-40
2024/01/06 10:20:47;;;;;;;11.10;7.70;;;;;;;1.34;68.16;98957.04;107468;1253;72828;-40
2024/01/06 10:23:14;;;;;;;12.70;8.40;;;;;;;1.32;68.34;98949.98;107515;1253;60397;-40
2024/01/06 10:25:42;;;;;;;11.90;8.50;;;;;;;1.29;68.43;98950.54;107330;1253;60365;-39
2024/01/06 10:28:13;;;;;;;11.40;7.80;;;;;;;1.26;68.39;98945.50;107376;1253;72244;-39
2024/01/06 10:30:41;;;;;;;;;;;;;;;1.22;68.67;98944.56;107352;1253;67896;-39
2024/01/06 10:33:10;;;;;;;12.40;9.00;;;;;;;1.19;68.82;98936.61;107488;1257;72732;-39
2024/01/06 10:35:39;;;;;;;12.40;9.00;;;;;;;1.16;68.99;98938.06;107450;1258;60455;-40
2024/01/06 10:38:07;;;;;;;14.10;8.50;;;;;;;1.14;69.11;98932.20;107428;1253;60441;-40
2024/01/06 10:40:34;;;;;;;13.20;8.20;;;;;;;1.22;69.28;98928.77;107403;1252;73802;-40
2024/01/06 10:43:02;;;;;;;12.00;8.10;;;;;;;1.34;69.06;98921.90;106648;1253;1003505;-38
2024/01/06 10:45:30;;;;;;;11.00;8.10;;;;;;;1.31;68.99;98908.46;107510;1253;72863;-38
2024/01/06 10:47:57;;;;;;;12.40;8.20;;;;;;;1.40;68.99;98920.98;107450;1254;60604;-38
2024/01/06 10:50:25;;;;;;;11.30;8.10;;;;;;;1.41;69.18;98915.61;107427;1253;60336;-39
2024/01/06 10:52:53;;;;;;;11.70;8.90;;;;;;;1.43;69.02;98911.65;107282;1253;72558;-38
2024/01/06 10:55:21;;;;;;;12.70;8.70;;;;;;;1.41;69.12;98909.73;107531;1257;66397;-39
2024/01/06 10:57:48;;;;;;;12.60;9.30;;;;;;;1.40;69.20;98906.72;107349;1254;71399;-38
2024/01/06 11:00:16;;;;;;;13.90;8.30;;;;;;;1.42;69.75;98901.09;107399;1253;61099;-39
2024/01/06 11:02:46;;;;;;;12.90;9.50;;;;;;;1.46;69.68;98896.93;107474;1253;60151;-38
2024/01/06 11:05:14;;;;;;;14.40;9.10;;;;;;;1.50;69.73;98900.65;107376;1253;73872;-38
2024/01/06 11:07:41;;;;;;;11.20;8.00;;;;;;;1.60;69.45;98906.23;107235;1253;68133;-38
2024/01/06 11:10:15;;;;;;;12.30;7.80;;;;;;;1.70;69.25;98903.84;107211;1253;72480;-39
2024/01/06 11:12:43;;;;;;;14.00;8.60;;;;;;;1.73;69.15;98901.71;107347;1253;60400;-38
2024/01/06 11:15:39;;;;;;;13.50;8.70;;;;;;;1.72;69.14;98895.85;107570;1253;59596;-39
2024/01/06 11:18:07;;;;;;;13.90;9.50;;;;;;;1.72;69.37;98893.34;107456;1253;72663;-40
2024/01/06 11:20:36;;;;;;;13.70;9.10;;;;;;;1.71;69.61;98894.65;107391;1253;67675;-38
2024/01/06 11:23:22;;;;;;;14.00;9.30;;;;;;;1.63;69.77;98887.25;107347;1256;72506;-39
2024/01/06 11:25:49;;;;;;;13.10;9.60;;;;;;;1.69;70.08;98900.81;107309;1254;60528;-39
2024/01/06 11:28:17;;;;;;;13.90;8.90;;;;;;;1.66;70.23;98903.45;107306;1258;60941;-39